sensor_id;sensor_type;location;lat;lon;timestamp;temperature;humidity
30379;DHT22;17168;49.164;9.060;2022-08-18T00:00:12;27.00;60.70
30379;DHT22;17168;49.164;9.060;2022-08-18T00:02:51;27.20;60.60
30379;DHT22;17168;49.164;9.060;2022-08-18T00:05:34;27.30;60.50
30379;DHT22;17168;49.164;9.060;2022-08-18T00:08:10;27.40;60.50
30379;DHT22;17168;49.164;9.060;2022-08-18T00:10:42;27.60;60.60
30379;DHT22;17168;49.164;9.060;2022-08-18T00:13:14;27.60;60.50
30379;DHT22;17168;49.164;9.060;2022-08-18T00:15:46;27.70;60.60
30379;DHT22;17168;49.164;9.060;2022-08-18T00:18:20;27.80;60.50
30379;DHT22;17168;49.164;9.060;2022-08-18T00:20:52;27.80;60.30
30379;DHT22;17168;49.164;9.060;2022-08-18T00:23:25;27.90;60.10
30379;DHT22;17168;49.164;9.060;2022-08-18T00:26:00;27.90;59.80
30379;DHT22;17168;49.164;9.060;2022-08-18T00:28:34;27.90;59.70
30379;DHT22;17168;49.164;9.060;2022-08-18T00:31:06;28.00;59.60
30379;DHT22;17168;49.164;9.060;2022-08-18T00:33:37;28.00;59.40
30379;DHT22;17168;49.164;9.060;2022-08-18T00:36:10;28.00;59.20
30379;DHT22;17168;49.164;9.060;2022-08-18T00:38:43;28.10;59.10
30379;DHT22;17168;49.164;9.060;2022-08-18T00:41:15;28.10;59.00
30379;DHT22;17168;49.164;9.060;2022-08-18T00:43:48;28.10;59.00
30379;DHT22;17168;49.164;9.060;2022-08-18T00:46:24;28.10;58.90
30379;DHT22;17168;49.164;9.060;2022-08-18T00:48:56;28.20;58.80
30379;DHT22;17168;49.164;9.060;2022-08-18T00:51:30;28.10;58.30
30379;DHT22;17168;49.164;9.060;2022-08-18T00:54:08;27.90;58.20
30379;DHT22;17168;49.164;9.060;2022-08-18T00:56:44;27.60;58.30
30379;DHT22;17168;49.164;9.060;2022-08-18T00:59:21;27.30;58.50
30379;DHT22;17168;49.164;9.060;2022-08-18T01:01:57;27.00;58.90
30379;DHT22;17168;49.164;9.060;2022-08-18T01:04:37;26.70;59.30
30379;DHT22;17168;49.164;9.060;2022-08-18T01:07:13;26.40;59.80
30379;DHT22;17168;49.164;9.060;2022-08-18T01:09:47;26.10;60.40
30379;DHT22;17168;49.164;9.060;2022-08-18T01:12:20;25.90;60.90
30379;DHT22;17168;49.164;9.060;2022-08-18T01:15:12;25.70;61.40
30379;DHT22;17168;49.164;9.060;2022-08-18T01:18:03;25.40;61.70
30379;DHT22;17168;49.164;9.060;2022-08-18T01:21:00;25.20;62.40
30379;DHT22;17168;49.164;9.060;2022-08-18T01:23:55;25.00;62.80
30379;DHT22;17168;49.164;9.060;2022-08-18T01:26:28;24.80;63.10
30379;DHT22;17168;49.164;9.060;2022-08-18T01:29:02;24.70;63.60
30379;DHT22;17168;49.164;9.060;2022-08-18T01:31:36;24.60;64.00
30379;DHT22;17168;49.164;9.060;2022-08-18T01:34:09;24.40;64.50
30379;DHT22;17168;49.164;9.060;2022-08-18T01:36:41;24.30;65.10
30379;DHT22;17168;49.164;9.060;2022-08-18T01:39:14;24.20;65.50
30379;DHT22;17168;49.164;9.060;2022-08-18T01:42:06;24.10;65.90
30379;DHT22;17168;49.164;9.060;2022-08-18T01:44:38;24.00;66.20
30379;DHT22;17168;49.164;9.060;2022-08-18T01:47:12;24.00;66.70
30379;DHT22;17168;49.164;9.060;2022-08-18T01:49:44;23.90;67.00
30379;DHT22;17168;49.164;9.060;2022-08-18T01:52:18;23.80;67.30
30379;DHT22;17168;49.164;9.060;2022-08-18T01:54:52;23.80;67.70
30379;DHT22;17168;49.164;9.060;2022-08-18T01:57:24;23.70;67.90
30379;DHT22;17168;49.164;9.060;2022-08-18T01:59:56;23.60;68.30
30379;DHT22;17168;49.164;9.060;2022-08-18T02:02:32;23.50;68.80
30379;DHT22;17168;49.164;9.060;2022-08-18T02:05:07;23.40;69.80
30379;DHT22;17168;49.164;9.060;2022-08-18T02:07:40;23.20;69.60
30379;DHT22;17168;49.164;9.060;2022-08-18T02:10:16;23.20;69.90
30379;DHT22;17168;49.164;9.060;2022-08-18T02:12:50;23.20;70.30
30379;DHT22;17168;49.164;9.060;2022-08-18T02:15:21;23.20;70.50
30379;DHT22;17168;49.164;9.060;2022-08-18T02:17:53;23.10;70.70
30379;DHT22;17168;49.164;9.060;2022-08-18T02:20:25;23.10;71.10
30379;DHT22;17168;49.164;9.060;2022-08-18T02:22:57;23.10;71.40
30379;DHT22;17168;49.164;9.060;2022-08-18T02:25:30;23.10;71.70
30379;DHT22;17168;49.164;9.060;2022-08-18T02:28:03;23.10;72.00
30379;DHT22;17168;49.164;9.060;2022-08-18T02:30:35;23.10;72.20
30379;DHT22;17168;49.164;9.060;2022-08-18T02:33:10;23.00;72.40
30379;DHT22;17168;49.164;9.060;2022-08-18T02:35:42;23.00;72.80
30379;DHT22;17168;49.164;9.060;2022-08-18T02:38:15;22.90;73.10
30379;DHT22;17168;49.164;9.060;2022-08-18T02:40:54;22.90;73.50
30379;DHT22;17168;49.164;9.060;2022-08-18T02:43:27;22.80;73.90
30379;DHT22;17168;49.164;9.060;2022-08-18T02:45:59;22.80;74.30
30379;DHT22;17168;49.164;9.060;2022-08-18T02:48:31;22.70;74.60
30379;DHT22;17168;49.164;9.060;2022-08-18T02:51:09;22.70;74.90
30379;DHT22;17168;49.164;9.060;2022-08-18T02:53:43;22.60;75.30
30379;DHT22;17168;49.164;9.060;2022-08-18T02:56:19;22.60;75.70
30379;DHT22;17168;49.164;9.060;2022-08-18T02:59:13;22.60;75.90
30379;DHT22;17168;49.164;9.060;2022-08-18T03:01:47;22.50;76.00
30379;DHT22;17168;49.164;9.060;2022-08-18T03:04:22;22.50;76.50
30379;DHT22;17168;49.164;9.060;2022-08-18T03:07:02;22.30;76.90
30379;DHT22;17168;49.164;9.060;2022-08-18T03:09:35;22.30;77.40
30379;DHT22;17168;49.164;9.060;2022-08-18T03:12:09;22.20;77.80
30379;DHT22;17168;49.164;9.060;2022-08-18T03:14:41;22.10;78.20
30379;DHT22;17168;49.164;9.060;2022-08-18T03:17:13;22.10;78.50
30379;DHT22;17168;49.164;9.060;2022-08-18T03:19:45;22.00;78.60
30379;DHT22;17168;49.164;9.060;2022-08-18T03:22:18;22.00;78.80
30379;DHT22;17168;49.164;9.060;2022-08-18T03:25:00;22.00;79.00
30379;DHT22;17168;49.164;9.060;2022-08-18T03:27:33;22.00;79.20
30379;DHT22;17168;49.164;9.060;2022-08-18T03:30:06;21.90;79.50
30379;DHT22;17168;49.164;9.060;2022-08-18T03:32:42;21.90;79.60
30379;DHT22;17168;49.164;9.060;2022-08-18T03:35:17;21.90;79.70
30379;DHT22;17168;49.164;9.060;2022-08-18T03:37:49;21.90;79.80
30379;DHT22;17168;49.164;9.060;2022-08-18T03:40:21;21.90;79.80
30379;DHT22;17168;49.164;9.060;2022-08-18T03:42:54;21.90;79.80
30379;DHT22;17168;49.164;9.060;2022-08-18T03:45:26;21.90;79.80
30379;DHT22;17168;49.164;9.060;2022-08-18T03:47:59;21.90;79.80
30379;DHT22;17168;49.164;9.060;2022-08-18T03:50:31;21.90;79.70
30379;DHT22;17168;49.164;9.060;2022-08-18T03:53:03;21.90;79.60
30379;DHT22;17168;49.164;9.060;2022-08-18T03:55:39;21.90;79.60
30379;DHT22;17168;49.164;9.060;2022-08-18T03:58:12;21.90;79.60
30379;DHT22;17168;49.164;9.060;2022-08-18T04:00:45;21.90;79.60
30379;DHT22;17168;49.164;9.060;2022-08-18T04:03:18;21.90;79.70
30379;DHT22;17168;49.164;9.060;2022-08-18T04:05:49;21.90;79.80
30379;DHT22;17168;49.164;9.060;2022-08-18T04:08:21;21.90;79.90
30379;DHT22;17168;49.164;9.060;2022-08-18T04:10:53;21.90;80.00
30379;DHT22;17168;49.164;9.060;2022-08-18T04:13:26;21.90;80.00
30379;DHT22;17168;49.164;9.060;2022-08-18T04:15:58;21.90;80.10
30379;DHT22;17168;49.164;9.060;2022-08-18T04:18:30;21.90;80.30
30379;DHT22;17168;49.164;9.060;2022-08-18T04:21:04;21.80;80.30
30379;DHT22;17168;49.164;9.060;2022-08-18T04:23:39;21.80;80.40
30379;DHT22;17168;49.164;9.060;2022-08-18T04:26:15;21.90;80.80
30379;DHT22;17168;49.164;9.060;2022-08-18T04:28:51;21.90;81.00
30379;DHT22;17168;49.164;9.060;2022-08-18T04:31:23;21.80;81.00
30379;DHT22;17168;49.164;9.060;2022-08-18T04:33:58;21.90;81.20
30379;DHT22;17168;49.164;9.060;2022-08-18T04:36:31;21.80;81.20
30379;DHT22;17168;49.164;9.060;2022-08-18T04:39:06;21.80;81.50
30379;DHT22;17168;49.164;9.060;2022-08-18T04:41:40;21.80;81.60
30379;DHT22;17168;49.164;9.060;2022-08-18T04:44:15;21.80;81.90
30379;DHT22;17168;49.164;9.060;2022-08-18T04:46:50;21.80;82.10
30379;DHT22;17168;49.164;9.060;2022-08-18T04:49:24;21.80;82.20
30379;DHT22;17168;49.164;9.060;2022-08-18T04:51:57;21.80;82.40
30379;DHT22;17168;49.164;9.060;2022-08-18T04:55:09;21.80;82.60
30379;DHT22;17168;49.164;9.060;2022-08-18T04:57:41;21.80;82.70
30379;DHT22;17168;49.164;9.060;2022-08-18T05:00:15;21.80;82.80
30379;DHT22;17168;49.164;9.060;2022-08-18T05:02:47;21.70;82.80
30379;DHT22;17168;49.164;9.060;2022-08-18T05:05:19;21.80;83.20
30379;DHT22;17168;49.164;9.060;2022-08-18T05:07:51;21.80;83.30
30379;DHT22;17168;49.164;9.060;2022-08-18T05:10:23;21.80;83.70
30379;DHT22;17168;49.164;9.060;2022-08-18T05:12:55;21.80;84.00
30379;DHT22;17168;49.164;9.060;2022-08-18T05:15:29;21.70;84.10
30379;DHT22;17168;49.164;9.060;2022-08-18T05:18:21;21.70;84.20
30379;DHT22;17168;49.164;9.060;2022-08-18T05:20:57;21.70;84.20
30379;DHT22;17168;49.164;9.060;2022-08-18T05:23:32;21.70;84.20
30379;DHT22;17168;49.164;9.060;2022-08-18T05:26:04;21.70;84.20
30379;DHT22;17168;49.164;9.060;2022-08-18T05:28:36;21.70;84.80
30379;DHT22;17168;49.164;9.060;2022-08-18T05:31:11;21.60;85.50
30379;DHT22;17168;49.164;9.060;2022-08-18T05:33:46;21.60;86.30
30379;DHT22;17168;49.164;9.060;2022-08-18T05:36:30;21.60;86.90
30379;DHT22;17168;49.164;9.060;2022-08-18T05:39:11;21.60;87.30
30379;DHT22;17168;49.164;9.060;2022-08-18T05:41:50;21.60;87.20
30379;DHT22;17168;49.164;9.060;2022-08-18T05:44:28;21.60;87.30
30379;DHT22;17168;49.164;9.060;2022-08-18T05:47:04;21.60;87.50
30379;DHT22;17168;49.164;9.060;2022-08-18T05:49:37;21.70;87.50
30379;DHT22;17168;49.164;9.060;2022-08-18T05:52:13;21.70;87.40
30379;DHT22;17168;49.164;9.060;2022-08-18T05:54:49;21.60;87.50
30379;DHT22;17168;49.164;9.060;2022-08-18T05:57:42;21.60;87.70
30379;DHT22;17168;49.164;9.060;2022-08-18T06:00:15;21.60;88.10
30379;DHT22;17168;49.164;9.060;2022-08-18T06:02:51;21.70;88.70
30379;DHT22;17168;49.164;9.060;2022-08-18T06:05:27;21.70;89.00
30379;DHT22;17168;49.164;9.060;2022-08-18T06:08:02;21.70;88.90
30379;DHT22;17168;49.164;9.060;2022-08-18T06:10:37;21.70;88.50
30379;DHT22;17168;49.164;9.060;2022-08-18T06:13:10;21.70;88.10
30379;DHT22;17168;49.164;9.060;2022-08-18T06:15:49;21.70;88.00
30379;DHT22;17168;49.164;9.060;2022-08-18T06:18:41;21.70;88.00
30379;DHT22;17168;49.164;9.060;2022-08-18T06:21:28;21.80;88.00
30379;DHT22;17168;49.164;9.060;2022-08-18T06:24:15;21.80;87.80
30379;DHT22;17168;49.164;9.060;2022-08-18T06:26:55;21.80;87.70
30379;DHT22;17168;49.164;9.060;2022-08-18T06:29:41;21.80;87.50
30379;DHT22;17168;49.164;9.060;2022-08-18T06:32:23;21.80;87.50
30379;DHT22;17168;49.164;9.060;2022-08-18T06:35:10;21.80;87.20
30379;DHT22;17168;49.164;9.060;2022-08-18T06:37:53;21.90;87.20
30379;DHT22;17168;49.164;9.060;2022-08-18T06:40:46;21.90;87.30
30379;DHT22;17168;49.164;9.060;2022-08-18T06:43:18;21.90;87.40
30379;DHT22;17168;49.164;9.060;2022-08-18T06:45:50;21.80;87.60
30379;DHT22;17168;49.164;9.060;2022-08-18T06:48:29;21.90;87.90
30379;DHT22;17168;49.164;9.060;2022-08-18T06:51:07;21.80;88.30
30379;DHT22;17168;49.164;9.060;2022-08-18T06:53:54;21.80;88.70
30379;DHT22;17168;49.164;9.060;2022-08-18T06:56:33;21.80;89.20
30379;DHT22;17168;49.164;9.060;2022-08-18T06:59:20;21.70;89.60
30379;DHT22;17168;49.164;9.060;2022-08-18T07:01:53;21.70;90.00
30379;DHT22;17168;49.164;9.060;2022-08-18T07:04:41;21.70;90.20
30379;DHT22;17168;49.164;9.060;2022-08-18T07:07:30;21.70;90.30
30379;DHT22;17168;49.164;9.060;2022-08-18T07:10:27;21.70;90.50
30379;DHT22;17168;49.164;9.060;2022-08-18T07:13:13;21.70;90.70
30379;DHT22;17168;49.164;9.060;2022-08-18T07:15:47;21.80;90.80
30379;DHT22;17168;49.164;9.060;2022-08-18T07:18:23;21.80;90.80
30379;DHT22;17168;49.164;9.060;2022-08-18T07:20:58;21.80;90.90
30379;DHT22;17168;49.164;9.060;2022-08-18T07:23:33;21.80;91.00
30379;DHT22;17168;49.164;9.060;2022-08-18T07:26:11;21.80;91.10
30379;DHT22;17168;49.164;9.060;2022-08-18T07:28:48;21.90;91.20
30379;DHT22;17168;49.164;9.060;2022-08-18T07:31:33;22.00;91.30
30379;DHT22;17168;49.164;9.060;2022-08-18T07:34:08;22.00;91.30
30379;DHT22;17168;49.164;9.060;2022-08-18T07:37:01;22.10;91.30
30379;DHT22;17168;49.164;9.060;2022-08-18T07:39:39;22.10;91.30
30379;DHT22;17168;49.164;9.060;2022-08-18T07:42:23;22.10;91.30
30379;DHT22;17168;49.164;9.060;2022-08-18T07:45:24;22.20;91.40
30379;DHT22;17168;49.164;9.060;2022-08-18T07:48:02;22.20;91.50
30379;DHT22;17168;49.164;9.060;2022-08-18T07:51:00;22.20;91.50
30379;DHT22;17168;49.164;9.060;2022-08-18T07:53:46;22.20;91.70
30379;DHT22;17168;49.164;9.060;2022-08-18T07:56:42;22.10;91.80
30379;DHT22;17168;49.164;9.060;2022-08-18T07:59:23;22.20;92.00
30379;DHT22;17168;49.164;9.060;2022-08-18T08:02:08;22.20;92.10
30379;DHT22;17168;49.164;9.060;2022-08-18T08:04:50;22.20;92.20
30379;DHT22;17168;49.164;9.060;2022-08-18T08:07:29;22.20;92.30
30379;DHT22;17168;49.164;9.060;2022-08-18T08:10:20;22.20;92.40
30379;DHT22;17168;49.164;9.060;2022-08-18T08:13:04;22.20;92.50
30379;DHT22;17168;49.164;9.060;2022-08-18T08:15:48;22.20;92.50
30379;DHT22;17168;49.164;9.060;2022-08-18T08:18:32;22.20;92.60
30379;DHT22;17168;49.164;9.060;2022-08-18T08:21:09;22.20;92.70
30379;DHT22;17168;49.164;9.060;2022-08-18T08:23:48;22.20;92.80
30379;DHT22;17168;49.164;9.060;2022-08-18T08:26:29;22.20;92.90
30379;DHT22;17168;49.164;9.060;2022-08-18T08:29:15;22.20;93.10
30379;DHT22;17168;49.164;9.060;2022-08-18T08:31:55;22.20;93.20
30379;DHT22;17168;49.164;9.060;2022-08-18T08:34:33;22.20;93.20
30379;DHT22;17168;49.164;9.060;2022-08-18T08:37:20;22.20;93.20
30379;DHT22;17168;49.164;9.060;2022-08-18T08:40:03;22.20;93.30
30379;DHT22;17168;49.164;9.060;2022-08-18T08:42:40;22.20;93.30
30379;DHT22;17168;49.164;9.060;2022-08-18T08:45:19;22.20;93.30
30379;DHT22;17168;49.164;9.060;2022-08-18T08:47:58;22.20;93.30
30379;DHT22;17168;49.164;9.060;2022-08-18T08:50:43;22.20;93.40
30379;DHT22;17168;49.164;9.060;2022-08-18T08:53:19;22.20;93.50
30379;DHT22;17168;49.164;9.060;2022-08-18T08:55:54;22.20;93.60
30379;DHT22;17168;49.164;9.060;2022-08-18T08:58:38;22.20;93.70
30379;DHT22;17168;49.164;9.060;2022-08-18T09:01:23;22.10;93.80
30379;DHT22;17168;49.164;9.060;2022-08-18T09:04:02;22.10;93.90
30379;DHT22;17168;49.164;9.060;2022-08-18T09:06:44;22.10;93.90
30379;DHT22;17168;49.164;9.060;2022-08-18T09:09:27;22.10;94.00
30379;DHT22;17168;49.164;9.060;2022-08-18T09:12:18;22.20;94.00
30379;DHT22;17168;49.164;9.060;2022-08-18T09:15:07;22.30;94.00
30379;DHT22;17168;49.164;9.060;2022-08-18T09:18:02;22.40;93.90
30379;DHT22;17168;49.164;9.060;2022-08-18T09:20:41;22.40;94.20
30379;DHT22;17168;49.164;9.060;2022-08-18T09:23:20;22.50;94.10
30379;DHT22;17168;49.164;9.060;2022-08-18T09:25:54;22.60;93.80
30379;DHT22;17168;49.164;9.060;2022-08-18T09:28:51;22.60;93.80
30379;DHT22;17168;49.164;9.060;2022-08-18T09:31:27;22.70;93.80
30379;DHT22;17168;49.164;9.060;2022-08-18T09:37:11;22.90;94.10
30379;DHT22;17168;49.164;9.060;2022-08-18T09:39:52;23.00;94.10
30379;DHT22;17168;49.164;9.060;2022-08-18T09:42:50;23.00;93.90
30379;DHT22;17168;49.164;9.060;2022-08-18T09:48:32;23.20;93.60
30379;DHT22;17168;49.164;9.060;2022-08-18T09:51:33;23.30;93.40
30379;DHT22;17168;49.164;9.060;2022-08-18T09:54:13;23.50;93.50
30379;DHT22;17168;49.164;9.060;2022-08-18T09:57:14;23.50;93.10
30379;DHT22;17168;49.164;9.060;2022-08-18T10:06:17;23.70;93.00
30379;DHT22;17168;49.164;9.060;2022-08-18T10:09:03;23.80;93.10
30379;DHT22;17168;49.164;9.060;2022-08-18T10:12:10;23.80;93.10
30379;DHT22;17168;49.164;9.060;2022-08-18T10:15:13;23.90;92.80
30379;DHT22;17168;49.164;9.060;2022-08-18T10:18:24;23.90;92.50
30379;DHT22;17168;49.164;9.060;2022-08-18T10:21:07;24.10;92.30
30379;DHT22;17168;49.164;9.060;2022-08-18T10:23:52;24.20;91.90
30379;DHT22;17168;49.164;9.060;2022-08-18T10:27:08;24.40;91.20
30379;DHT22;17168;49.164;9.060;2022-08-18T10:29:50;24.50;90.80
30379;DHT22;17168;49.164;9.060;2022-08-18T10:32:35;24.60;90.70
30379;DHT22;17168;49.164;9.060;2022-08-18T10:38:26;25.00;90.00
30379;DHT22;17168;49.164;9.060;2022-08-18T10:41:07;25.10;87.80
30379;DHT22;17168;49.164;9.060;2022-08-18T10:43:50;25.20;86.30
30379;DHT22;17168;49.164;9.060;2022-08-18T10:46:33;25.30;85.90
30379;DHT22;17168;49.164;9.060;2022-08-18T10:49:21;25.40;85.40
30379;DHT22;17168;49.164;9.060;2022-08-18T10:52:10;25.50;84.80
30379;DHT22;17168;49.164;9.060;2022-08-18T10:55:01;25.60;84.20
30379;DHT22;17168;49.164;9.060;2022-08-18T10:57:56;25.70;83.50
30379;DHT22;17168;49.164;9.060;2022-08-18T11:00:44;25.80;83.10
30379;DHT22;17168;49.164;9.060;2022-08-18T11:03:29;25.90;82.20
30379;DHT22;17168;49.164;9.060;2022-08-18T11:06:23;26.00;80.40
30379;DHT22;17168;49.164;9.060;2022-08-18T11:08:58;26.10;80.00
30379;DHT22;17168;49.164;9.060;2022-08-18T11:11:34;26.20;79.20
30379;DHT22;17168;49.164;9.060;2022-08-18T11:14:51;26.20;78.90
30379;DHT22;17168;49.164;9.060;2022-08-18T11:17:35;26.40;78.70
30379;DHT22;17168;49.164;9.060;2022-08-18T11:20:30;26.50;78.00
30379;DHT22;17168;49.164;9.060;2022-08-18T11:23:11;26.60;77.70
30379;DHT22;17168;49.164;9.060;2022-08-18T11:25:45;26.70;76.70
30379;DHT22;17168;49.164;9.060;2022-08-18T11:28:21;26.80;76.60
30379;DHT22;17168;49.164;9.060;2022-08-18T11:31:01;27.00;76.30
30379;DHT22;17168;49.164;9.060;2022-08-18T11:33:40;27.10;75.40
30379;DHT22;17168;49.164;9.060;2022-08-18T11:36:14;27.20;74.80
30379;DHT22;17168;49.164;9.060;2022-08-18T11:38:53;27.30;74.40
30379;DHT22;17168;49.164;9.060;2022-08-18T11:41:27;27.40;74.20
30379;DHT22;17168;49.164;9.060;2022-08-18T11:44:21;27.50;73.80
30379;DHT22;17168;49.164;9.060;2022-08-18T11:47:08;27.60;73.50
30379;DHT22;17168;49.164;9.060;2022-08-18T11:49:56;27.70;73.50
30379;DHT22;17168;49.164;9.060;2022-08-18T11:52:29;27.80;73.20
30379;DHT22;17168;49.164;9.060;2022-08-18T11:55:17;28.00;72.90
30379;DHT22;17168;49.164;9.060;2022-08-18T11:57:57;28.10;71.60
30379;DHT22;17168;49.164;9.060;2022-08-18T12:00:42;28.10;71.10
30379;DHT22;17168;49.164;9.060;2022-08-18T12:03:29;28.10;70.80
30379;DHT22;17168;49.164;9.060;2022-08-18T12:06:12;28.20;70.70
30379;DHT22;17168;49.164;9.060;2022-08-18T12:08:55;28.30;70.60
30379;DHT22;17168;49.164;9.060;2022-08-18T12:11:31;28.60;69.60
30379;DHT22;17168;49.164;9.060;2022-08-18T12:14:07;28.90;68.40
30379;DHT22;17168;49.164;9.060;2022-08-18T12:17:00;29.40;67.80
30379;DHT22;17168;49.164;9.060;2022-08-18T12:19:32;30.00;67.00
30379;DHT22;17168;49.164;9.060;2022-08-18T12:22:14;30.70;66.40
30379;DHT22;17168;49.164;9.060;2022-08-18T12:24:48;31.20;65.30
30379;DHT22;17168;49.164;9.060;2022-08-18T12:27:20;31.40;64.40
30379;DHT22;17168;49.164;9.060;2022-08-18T12:29:53;31.40;63.50
30379;DHT22;17168;49.164;9.060;2022-08-18T12:32:29;31.40;62.90
30379;DHT22;17168;49.164;9.060;2022-08-18T12:35:20;31.50;61.90
30379;DHT22;17168;49.164;9.060;2022-08-18T12:37:54;31.50;61.50
30379;DHT22;17168;49.164;9.060;2022-08-18T12:40:47;31.30;61.10
30379;DHT22;17168;49.164;9.060;2022-08-18T12:43:18;31.20;60.30
30379;DHT22;17168;49.164;9.060;2022-08-18T12:45:50;31.10;59.90
30379;DHT22;17168;49.164;9.060;2022-08-18T12:48:23;31.10;59.70
30379;DHT22;17168;49.164;9.060;2022-08-18T12:50:57;31.00;59.70
30379;DHT22;17168;49.164;9.060;2022-08-18T12:53:32;31.00;59.70
30379;DHT22;17168;49.164;9.060;2022-08-18T12:56:25;30.90;59.20
30379;DHT22;17168;49.164;9.060;2022-08-18T12:58:59;30.90;58.60
30379;DHT22;17168;49.164;9.060;2022-08-18T13:01:35;30.90;58.90
30379;DHT22;17168;49.164;9.060;2022-08-18T13:04:10;31.20;58.70
30379;DHT22;17168;49.164;9.060;2022-08-18T13:06:46;31.30;58.30
30379;DHT22;17168;49.164;9.060;2022-08-18T13:09:33;31.30;57.90
30379;DHT22;17168;49.164;9.060;2022-08-18T13:12:24;31.20;57.40
30379;DHT22;17168;49.164;9.060;2022-08-18T13:14:59;31.10;57.10
30379;DHT22;17168;49.164;9.060;2022-08-18T13:17:35;31.00;56.60
30379;DHT22;17168;49.164;9.060;2022-08-18T13:20:12;30.90;56.10
30379;DHT22;17168;49.164;9.060;2022-08-18T13:22:44;30.80;55.50
30379;DHT22;17168;49.164;9.060;2022-08-18T13:25:22;30.70;55.60
30379;DHT22;17168;49.164;9.060;2022-08-18T13:28:09;30.60;55.50
30379;DHT22;17168;49.164;9.060;2022-08-18T13:30:44;30.80;55.50
30379;DHT22;17168;49.164;9.060;2022-08-18T13:33:16;31.20;55.20
30379;DHT22;17168;49.164;9.060;2022-08-18T13:36:08;31.60;54.90
30379;DHT22;17168;49.164;9.060;2022-08-18T13:38:40;32.10;54.60
30379;DHT22;17168;49.164;9.060;2022-08-18T13:41:15;32.50;53.80
30379;DHT22;17168;49.164;9.060;2022-08-18T13:43:47;32.90;53.40
30379;DHT22;17168;49.164;9.060;2022-08-18T13:46:20;33.30;52.60
30379;DHT22;17168;49.164;9.060;2022-08-18T13:49:01;33.60;51.70
30379;DHT22;17168;49.164;9.060;2022-08-18T13:51:34;34.00;51.20
30379;DHT22;17168;49.164;9.060;2022-08-18T13:54:08;34.30;50.70
30379;DHT22;17168;49.164;9.060;2022-08-18T13:57:03;34.60;50.40
30379;DHT22;17168;49.164;9.060;2022-08-18T13:59:37;34.90;49.70
30379;DHT22;17168;49.164;9.060;2022-08-18T14:02:17;35.10;48.40
30379;DHT22;17168;49.164;9.060;2022-08-18T14:04:49;35.30;49.30
30379;DHT22;17168;49.164;9.060;2022-08-18T14:07:22;35.40;48.60
30379;DHT22;17168;49.164;9.060;2022-08-18T14:09:58;35.60;52.10
30379;DHT22;17168;49.164;9.060;2022-08-18T14:12:36;35.90;58.00
30379;DHT22;17168;49.164;9.060;2022-08-18T14:15:12;35.90;47.30
30379;DHT22;17168;49.164;9.060;2022-08-18T14:17:46;36.00;49.40
30379;DHT22;17168;49.164;9.060;2022-08-18T14:20:19;36.10;46.50
30379;DHT22;17168;49.164;9.060;2022-08-18T14:23:18;36.00;46.20
30379;DHT22;17168;49.164;9.060;2022-08-18T14:26:14;36.00;46.20
30379;DHT22;17168;49.164;9.060;2022-08-18T14:29:07;36.00;45.90
30379;DHT22;17168;49.164;9.060;2022-08-18T14:31:46;36.00;45.70
30379;DHT22;17168;49.164;9.060;2022-08-18T14:34:22;35.80;45.20
30379;DHT22;17168;49.164;9.060;2022-08-18T14:36:59;35.80;45.10
30379;DHT22;17168;49.164;9.060;2022-08-18T14:39:32;35.70;45.00
30379;DHT22;17168;49.164;9.060;2022-08-18T14:42:04;35.60;45.00
30379;DHT22;17168;49.164;9.060;2022-08-18T14:44:38;35.40;44.90
30379;DHT22;17168;49.164;9.060;2022-08-18T14:47:12;35.10;44.70
30379;DHT22;17168;49.164;9.060;2022-08-18T14:49:55;34.90;44.90
30379;DHT22;17168;49.164;9.060;2022-08-18T14:52:29;34.60;45.10
30379;DHT22;17168;49.164;9.060;2022-08-18T14:55:01;34.30;45.20
30379;DHT22;17168;49.164;9.060;2022-08-18T14:57:33;34.10;45.60
30379;DHT22;17168;49.164;9.060;2022-08-18T15:00:09;34.00;45.90
30379;DHT22;17168;49.164;9.060;2022-08-18T15:02:43;33.90;46.20
30379;DHT22;17168;49.164;9.060;2022-08-18T15:05:16;33.80;46.40
30379;DHT22;17168;49.164;9.060;2022-08-18T15:07:54;33.90;46.60
30379;DHT22;17168;49.164;9.060;2022-08-18T15:10:27;33.90;46.60
30379;DHT22;17168;49.164;9.060;2022-08-18T15:12:59;34.00;46.90
30379;DHT22;17168;49.164;9.060;2022-08-18T15:15:32;34.00;47.00
30379;DHT22;17168;49.164;9.060;2022-08-18T15:18:21;34.00;47.00
30379;DHT22;17168;49.164;9.060;2022-08-18T15:20:57;33.80;46.90
30379;DHT22;17168;49.164;9.060;2022-08-18T15:24:06;33.60;47.00
30379;DHT22;17168;49.164;9.060;2022-08-18T15:26:58;33.30;47.30
30379;DHT22;17168;49.164;9.060;2022-08-18T15:29:37;33.10;47.70
30379;DHT22;17168;49.164;9.060;2022-08-18T15:32:16;32.90;47.90
30379;DHT22;17168;49.164;9.060;2022-08-18T15:34:48;32.70;48.20
30379;DHT22;17168;49.164;9.060;2022-08-18T15:37:22;32.50;48.50
30379;DHT22;17168;49.164;9.060;2022-08-18T15:39:59;32.30;48.80
30379;DHT22;17168;49.164;9.060;2022-08-18T15:42:33;32.20;49.10
30379;DHT22;17168;49.164;9.060;2022-08-18T15:45:08;32.00;49.30
30379;DHT22;17168;49.164;9.060;2022-08-18T15:47:45;31.90;49.70
30379;DHT22;17168;49.164;9.060;2022-08-18T15:50:18;31.70;49.90
30379;DHT22;17168;49.164;9.060;2022-08-18T15:52:57;31.60;50.30
30379;DHT22;17168;49.164;9.060;2022-08-18T15:55:29;31.40;51.20
30379;DHT22;17168;49.164;9.060;2022-08-18T15:58:06;31.20;51.60
30379;DHT22;17168;49.164;9.060;2022-08-18T16:00:42;31.00;52.00
30379;DHT22;17168;49.164;9.060;2022-08-18T16:03:17;30.80;52.30
30379;DHT22;17168;49.164;9.060;2022-08-18T16:05:52;30.70;52.90
30379;DHT22;17168;49.164;9.060;2022-08-18T16:08:24;30.50;53.40
30379;DHT22;17168;49.164;9.060;2022-08-18T16:10:55;30.30;54.40
30379;DHT22;17168;49.164;9.060;2022-08-18T16:13:27;30.10;55.40
30379;DHT22;17168;49.164;9.060;2022-08-18T16:15:59;29.80;56.00
30379;DHT22;17168;49.164;9.060;2022-08-18T16:18:39;29.60;56.50
30379;DHT22;17168;49.164;9.060;2022-08-18T16:21:12;29.40;57.20
30379;DHT22;17168;49.164;9.060;2022-08-18T16:23:46;29.20;58.20
30379;DHT22;17168;49.164;9.060;2022-08-18T16:26:18;29.00;58.50
30379;DHT22;17168;49.164;9.060;2022-08-18T16:28:51;28.90;58.50
30379;DHT22;17168;49.164;9.060;2022-08-18T16:31:23;28.80;58.90
30379;DHT22;17168;49.164;9.060;2022-08-18T16:34:00;28.70;59.70
30379;DHT22;17168;49.164;9.060;2022-08-18T16:36:31;28.50;60.40
30379;DHT22;17168;49.164;9.060;2022-08-18T16:39:03;28.40;60.70
30379;DHT22;17168;49.164;9.060;2022-08-18T16:41:36;28.30;60.90
30379;DHT22;17168;49.164;9.060;2022-08-18T16:44:09;28.30;61.60
30379;DHT22;17168;49.164;9.060;2022-08-18T16:46:40;28.10;61.70
30379;DHT22;17168;49.164;9.060;2022-08-18T16:49:14;28.10;62.10
30379;DHT22;17168;49.164;9.060;2022-08-18T16:51:45;28.00;62.60
30379;DHT22;17168;49.164;9.060;2022-08-18T16:54:17;27.80;62.30
30379;DHT22;17168;49.164;9.060;2022-08-18T16:56:49;27.80;62.70